createdAt,value
2019-01-11T00:01:51.628Z,50.87
2019-01-11T00:04:20.885Z,54.27
2019-01-11T00:06:50.001Z,59.80
2019-01-11T00:09:19.764Z,55.90
2019-01-11T00:11:48.909Z,61.17
2019-01-11T00:14:18.025Z,59.40
2019-01-11T00:16:47.174Z,64.20
2019-01-11T00:19:16.337Z,65.17
2019-01-11T00:21:45.495Z,61.87
2019-01-11T00:24:14.641Z,61.90
2019-01-11T00:26:43.778Z,60.37
2019-01-11T00:29:12.926Z,64.37
2019-01-11T00:31:42.097Z,59.40
2019-01-11T00:34:11.287Z,63.57
2019-01-11T00:36:40.704Z,62.10
2019-01-11T00:39:09.949Z,63.17
2019-01-11T00:41:39.235Z,61.70
2019-01-11T00:44:08.353Z,58.47
2019-01-11T00:46:37.510Z,54.37
2019-01-11T00:49:06.700Z,53.97
2019-01-11T00:51:35.896Z,54.37
2019-01-11T00:54:05.332Z,47.87
2019-01-11T00:56:34.484Z,47.93
2019-01-11T00:59:03.620Z,44.80
2019-01-11T01:01:32.812Z,46.13
2019-01-11T01:04:02.238Z,41.60
2019-01-11T01:06:31.384Z,53.23
2019-01-11T01:09:00.610Z,48.53
2019-01-11T01:11:29.852Z,46.97
2019-01-11T01:13:59.104Z,45.47
2019-01-11T01:16:28.312Z,45.43
2019-01-11T01:18:57.448Z,41.57
2019-01-11T01:21:26.555Z,38.83
2019-01-11T01:23:55.545Z,44.67
2019-01-11T01:26:24.584Z,41.67
2019-01-11T01:28:53.663Z,47.27
2019-01-11T01:31:22.702Z,46.53
2019-01-11T01:33:51.697Z,47.70
2019-01-11T01:36:20.744Z,41.93
2019-01-11T01:38:49.817Z,47.43
2019-01-11T01:41:18.830Z,46.03
2019-01-11T01:43:47.815Z,47.53
2019-01-11T01:46:16.740Z,44.73
2019-01-11T01:48:45.695Z,46.27
2019-01-11T01:51:14.722Z,41.43
2019-01-11T01:53:45.021Z,45.40
2019-01-11T01:56:14.060Z,46.20
2019-01-11T01:58:43.093Z,39.33
2019-01-11T02:01:12.088Z,42.90
2019-01-11T02:03:41.039Z,41.40
2019-01-11T02:06:10.044Z,36.53
2019-01-11T02:08:39.087Z,39.60
2019-01-11T02:11:08.097Z,38.73
2019-01-11T02:13:37.080Z,36.47
2019-01-11T02:16:06.077Z,44.70
2019-01-11T02:18:35.167Z,38.30
2019-01-11T02:21:04.151Z,35.70
2019-01-11T02:23:33.090Z,41.53
2019-01-11T02:26:02.050Z,44.40
2019-01-11T02:28:31.076Z,37.67
2019-01-11T02:31:00.069Z,41.43
2019-01-11T02:33:29.024Z,43.80
2019-01-11T02:35:58.036Z,39.27
2019-01-11T02:38:27.087Z,42.70
2019-01-11T02:40:56.096Z,42.80
2019-01-11T02:43:25.108Z,39.90
2019-01-11T02:45:54.101Z,38.60
2019-01-11T02:48:23.119Z,41.57
2019-01-11T02:50:52.207Z,41.67
2019-01-11T02:53:21.100Z,44.03
2019-01-11T02:55:50.055Z,46.27
2019-01-11T02:58:19.101Z,44.87
2019-01-11T03:00:48.080Z,43.33
2019-01-11T03:03:17.107Z,45.47
2019-01-11T03:05:46.080Z,39.27
2019-01-11T03:08:14.992Z,39.73
2019-01-11T03:10:43.971Z,39.67
2019-01-11T03:13:12.932Z,43.53
2019-01-11T03:15:41.975Z,42.27
2019-01-11T03:18:11.022Z,42.73
2019-01-11T03:20:40.024Z,39.30
2019-01-11T03:23:09.037Z,46.43
2019-01-11T03:25:38.087Z,41.17
2019-01-11T03:28:07.078Z,42.70
2019-01-11T03:30:36.096Z,41.97
2019-01-11T03:33:05.149Z,48.83
2019-01-11T03:35:34.132Z,54.40
2019-01-11T03:38:03.041Z,52.30
2019-01-11T03:40:31.983Z,51.37
2019-01-11T03:43:02.044Z,52.97
2019-01-11T03:45:31.043Z,55.20
2019-01-11T03:48:00.052Z,59.00
2019-01-11T03:50:29.159Z,58.77
2019-01-11T03:52:58.142Z,58.37
2019-01-11T03:55:27.160Z,52.57
2019-01-11T03:57:56.148Z,47.47
2019-01-11T04:00:25.383Z,45.53
2019-01-11T04:02:54.417Z,50.57
2019-01-11T04:05:23.419Z,44.93
2019-01-11T04:07:52.546Z,48.33
2019-01-11T04:10:24.768Z,44.13
2019-01-11T04:12:53.764Z,43.57
2019-01-11T04:15:26.179Z,39.33
2019-01-11T04:18:14.247Z,43.97
2019-01-11T04:20:43.265Z,46.53
2019-01-11T04:23:12.248Z,38.87
2019-01-11T04:25:43.371Z,49.30
2019-01-11T04:28:12.307Z,44.37
2019-01-11T04:30:41.320Z,48.97
2019-01-11T04:33:10.276Z,56.07
2019-01-11T04:35:39.211Z,63.83
2019-01-11T04:38:08.252Z,54.77
2019-01-11T04:40:37.280Z,53.53
2019-01-11T04:43:06.280Z,53.37
2019-01-11T04:45:35.217Z,51.70
2019-01-11T04:48:04.262Z,48.83
2019-01-11T04:50:33.247Z,50.43
2019-01-11T04:53:02.214Z,46.27
2019-01-11T04:55:31.223Z,47.90
2019-01-11T04:58:00.140Z,47.43
2019-01-11T05:00:48.621Z,48.83
2019-01-11T05:03:17.532Z,43.87
2019-01-11T05:05:46.471Z,48.60
2019-01-11T05:08:15.484Z,54.30
2019-01-11T05:10:44.493Z,56.33
2019-01-11T05:13:47.459Z,56.93
2019-01-11T05:16:16.366Z,54.90
2019-01-11T05:18:45.396Z,61.23
2019-01-11T05:21:14.378Z,57.70
2019-01-11T05:23:43.376Z,67.10
2019-01-11T05:26:12.395Z,66.53
2019-01-11T05:28:41.457Z,69.07
2019-01-11T05:31:10.697Z,68.13
2019-01-11T05:33:39.727Z,70.87
2019-01-11T05:36:08.820Z,66.90
2019-01-11T05:38:37.856Z,62.43
2019-01-11T05:41:06.784Z,78.43
2019-01-11T05:43:35.746Z,74.30
2019-01-11T05:46:04.734Z,80.93
2019-01-11T05:48:33.653Z,81.27
2019-01-11T05:51:03.725Z,87.57
2019-01-11T05:53:32.637Z,86.50
2019-01-11T05:56:07.125Z,89.23
2019-01-11T05:58:39.698Z,89.80
2019-01-11T06:01:08.690Z,76.73
2019-01-11T06:03:37.752Z,76.20
2019-01-11T06:06:06.944Z,79.83
2019-01-11T06:08:36.372Z,85.37
2019-01-11T06:11:05.532Z,79.77
2019-01-11T06:13:34.554Z,72.93
2019-01-11T06:16:03.616Z,107.95
2019-01-11T06:18:32.511Z,83.57
2019-01-11T06:21:01.532Z,92.40
2019-01-11T06:23:30.577Z,88.13
2019-01-11T06:25:59.992Z,91.77
2019-01-11T06:28:29.001Z,88.70
2019-01-11T06:30:58.152Z,96.60
2019-01-11T06:33:27.335Z,95.13
2019-01-11T06:35:56.386Z,86.90
2019-01-11T06:38:25.386Z,85.83
2019-01-11T06:40:54.524Z,78.50
2019-01-11T06:43:23.529Z,125.97
2019-01-11T06:45:52.563Z,93.78
2019-01-11T06:48:41.899Z,78.30
2019-01-11T06:51:11.016Z,81.23
2019-01-11T06:53:39.948Z,93.90
2019-01-11T06:56:08.996Z,96.97
2019-01-11T06:58:38.021Z,108.17
2019-01-11T07:01:07.036Z,95.37
2019-01-11T07:03:36.380Z,113.13
2019-01-11T07:06:05.381Z,130.43
2019-01-11T07:08:34.412Z,134.87
2019-01-11T07:11:03.432Z,157.63
2019-01-11T07:13:32.395Z,135.93
2019-01-11T07:16:01.381Z,135.23
2019-01-11T07:18:30.355Z,149.87
2019-01-11T07:20:59.412Z,147.20
2019-01-11T07:23:28.342Z,164.17
2019-01-11T07:25:57.390Z,151.60
2019-01-11T07:28:26.413Z,169.40
2019-01-11T07:31:05.113Z,158.87
2019-01-11T07:33:34.648Z,176.33
2019-01-11T07:36:21.494Z,149.30
2019-01-11T07:38:50.511Z,127.23
2019-01-11T07:41:19.601Z,129.63
2019-01-11T07:43:48.842Z,94.40
2019-01-11T07:46:17.961Z,94.93
2019-01-11T07:48:47.096Z,94.63
2019-01-11T07:51:16.615Z,93.73
2019-01-11T07:53:45.886Z,84.37
2019-01-11T07:56:15.029Z,99.27
2019-01-11T07:58:43.992Z,88.07
2019-01-11T08:01:13.125Z,89.40
2019-01-11T08:03:42.060Z,90.63
2019-01-11T08:06:11.096Z,111.57
2019-01-11T08:08:40.238Z,96.73
2019-01-11T08:11:09.184Z,103.03
2019-01-11T08:13:38.192Z,88.43
2019-01-11T08:16:07.189Z,119.27
2019-01-11T08:18:36.172Z,101.23
2019-01-11T08:21:05.289Z,113.63
2019-01-11T08:23:34.148Z,104.10
2019-01-11T08:26:03.160Z,122.87
2019-01-11T08:28:34.045Z,122.67
2019-01-11T08:31:03.063Z,137.13
2019-01-11T08:33:33.425Z,170.53
2019-01-11T08:36:02.839Z,181.70
2019-01-11T08:38:31.840Z,167.87
2019-01-11T08:41:00.808Z,167.67
2019-01-11T08:43:29.833Z,168.13
2019-01-11T08:45:58.792Z,172.67
2019-01-11T08:48:27.809Z,164.47
2019-01-11T08:51:02.461Z,131.23
2019-01-11T08:53:27.633Z,153.60
2019-01-11T08:55:56.660Z,125.77
2019-01-11T08:58:25.706Z,119.33
2019-01-11T09:00:54.704Z,111.37
2019-01-11T09:03:23.784Z,117.63
2019-01-11T09:05:53.871Z,117.47
2019-01-11T09:08:22.804Z,141.07
2019-01-11T09:10:51.826Z,132.73
2019-01-11T09:13:20.940Z,128.50
2019-01-11T09:15:49.953Z,132.33
2019-01-11T09:18:31.304Z,124.47
2019-01-11T09:21:00.298Z,127.63
2019-01-11T09:23:29.309Z,127.57
2019-01-11T09:25:58.367Z,136.80
2019-01-11T09:28:27.424Z,140.17
2019-01-11T09:30:56.457Z,170.73
2019-01-11T09:33:25.483Z,152.63
2019-01-11T09:35:54.517Z,146.60
2019-01-11T09:38:23.533Z,128.63
2019-01-11T09:40:52.577Z,159.13
2019-01-11T09:43:21.585Z,145.20
2019-01-11T09:45:51.693Z,128.77
2019-01-11T09:48:20.722Z,156.00
2019-01-11T09:50:49.786Z,150.77
2019-01-11T09:53:18.781Z,168.63
2019-01-11T09:55:47.828Z,170.03
2019-01-11T09:58:16.681Z,184.07
2019-01-11T10:00:45.756Z,249.33
2019-01-11T10:03:14.795Z,223.13
2019-01-11T10:05:44.355Z,229.97
2019-01-11T10:08:13.294Z,190.83
2019-01-11T10:10:42.304Z,197.03
2019-01-11T10:13:11.348Z,189.90
2019-01-11T10:15:40.360Z,180.67
2019-01-11T10:18:09.488Z,160.37
2019-01-11T10:20:38.510Z,163.57
2019-01-11T10:23:07.521Z,168.77
2019-01-11T10:25:36.577Z,155.70
2019-01-11T10:28:05.898Z,154.27
2019-01-11T10:30:34.994Z,146.23
2019-01-11T10:33:04.120Z,141.27
2019-01-11T10:35:33.140Z,143.57
2019-01-11T10:38:02.322Z,137.67
2019-01-11T10:40:31.620Z,186.30
2019-01-11T10:43:00.856Z,189.37
2019-01-11T10:45:29.885Z,180.83
2019-01-11T10:47:59.513Z,183.50
2019-01-11T10:50:28.533Z,164.40
2019-01-11T10:52:57.664Z,162.50
2019-01-11T10:55:26.798Z,211.90
2019-01-11T10:57:55.873Z,207.03
2019-01-11T11:00:26.424Z,180.83
2019-01-11T11:02:56.433Z,170.37
2019-01-11T11:05:25.456Z,236.33
2019-01-11T11:07:54.464Z,209.03
2019-01-11T11:10:23.489Z,263.50
2019-01-11T11:12:52.527Z,235.97
2019-01-11T11:15:21.791Z,241.37
2019-01-11T11:17:50.857Z,220.50
2019-01-11T11:20:20.616Z,218.87
2019-01-11T11:22:49.852Z,218.97
2019-01-11T11:25:22.261Z,185.30
2019-01-11T11:27:51.293Z,191.03
2019-01-11T11:30:21.123Z,231.50
2019-01-11T11:32:57.318Z,197.33
2019-01-11T11:35:27.609Z,223.43
2019-01-11T11:37:56.936Z,194.90
2019-01-11T11:40:26.749Z,218.67
2019-01-11T11:42:55.873Z,205.03
2019-01-11T11:45:24.905Z,179.27
2019-01-11T11:47:54.048Z,180.73
2019-01-11T11:50:23.185Z,184.23
2019-01-11T11:52:52.295Z,187.97
2019-01-11T11:55:21.684Z,185.33
2019-01-11T11:57:50.766Z,145.60
2019-01-11T12:00:22.579Z,172.40
2019-01-11T12:02:52.716Z,174.60
2019-01-11T12:05:21.733Z,191.30
2019-01-11T12:07:50.804Z,208.53
2019-01-11T12:10:20.342Z,211.83
2019-01-11T12:12:49.477Z,232.67
2019-01-11T12:15:18.521Z,240.80
2019-01-11T12:17:47.611Z,193.40
2019-01-11T12:20:36.014Z,202.53
2019-01-11T12:23:05.068Z,225.27
2019-01-11T12:25:34.109Z,227.47
2019-01-11T12:28:03.060Z,256.60
2019-01-11T12:30:32.169Z,191.97
2019-01-11T12:33:01.305Z,184.87
2019-01-11T12:35:30.273Z,213.23
2019-01-11T12:37:59.358Z,202.47
2019-01-11T12:40:28.461Z,182.67
2019-01-11T12:42:57.658Z,217.00
2019-01-11T12:45:26.753Z,168.20
2019-01-11T12:47:55.762Z,189.60
2019-01-11T12:50:26.140Z,172.40
2019-01-11T12:52:55.304Z,157.93
2019-01-11T12:55:27.316Z,167.60
2019-01-11T12:57:56.273Z,167.33
2019-01-11T13:00:25.414Z,146.97
2019-01-11T13:02:54.645Z,152.07
2019-01-11T13:05:24.038Z,151.97
2019-01-11T13:07:53.112Z,156.47
2019-01-11T13:10:22.238Z,143.57
2019-01-11T13:12:51.193Z,155.17
2019-01-11T13:15:22.157Z,132.83
2019-01-11T13:17:51.166Z,150.03
2019-01-11T13:20:21.269Z,129.40
2019-01-11T13:22:50.841Z,140.00
2019-01-11T13:25:19.878Z,145.17
2019-01-11T13:27:48.885Z,128.27
2019-01-11T13:30:18.346Z,134.27
2019-01-11T13:32:47.348Z,132.43
2019-01-11T13:35:16.374Z,138.10
2019-01-11T13:37:45.577Z,123.37
2019-01-11T13:40:20.928Z,123.20
2019-01-11T13:42:49.986Z,110.13
2019-01-11T13:45:19.041Z,117.03
2019-01-11T13:47:48.112Z,91.83
2019-01-11T13:50:37.591Z,90.07
2019-01-11T13:53:08.333Z,96.27
2019-01-11T13:55:37.656Z,94.97
2019-01-11T13:58:06.653Z,87.60
2019-01-11T14:00:35.716Z,76.77
2019-01-11T14:03:04.812Z,67.30
2019-01-11T14:05:33.870Z,64.77
2019-01-11T14:08:02.944Z,60.73
2019-01-11T14:10:31.989Z,60.70
2019-01-11T14:13:01.166Z,55.37
2019-01-11T14:15:30.480Z,49.43
2019-01-11T14:17:59.496Z,51.33
2019-01-11T14:20:28.567Z,44.33
2019-01-11T14:22:57.597Z,34.17
2019-01-11T14:25:26.550Z,27.13
2019-01-11T14:27:55.619Z,30.27
2019-01-11T14:30:24.780Z,22.63
2019-01-11T14:32:53.917Z,23.97
2019-01-11T14:35:24.419Z,25.37
2019-01-11T14:37:53.652Z,20.00
2019-01-11T14:40:22.750Z,17.37
2019-01-11T14:42:51.899Z,19.30
2019-01-11T14:45:21.048Z,19.70
2019-01-11T14:47:50.316Z,19.17
2019-01-11T14:50:19.844Z,22.70
2019-01-11T14:52:48.949Z,24.40
2019-01-11T14:55:17.908Z,14.80
2019-01-11T14:57:47.197Z,18.23
2019-01-11T15:00:21.270Z,19.63
2019-01-11T15:02:52.380Z,19.47
2019-01-11T15:05:21.693Z,18.43
2019-01-11T15:07:50.673Z,17.57
2019-01-11T15:10:19.783Z,20.53
2019-01-11T15:12:49.709Z,16.03
2019-01-11T15:15:18.644Z,21.53
2019-01-11T15:17:47.711Z,20.57
2019-01-11T15:20:18.351Z,20.70
2019-01-11T15:22:48.016Z,17.57
2019-01-11T15:25:17.231Z,15.33
2019-01-11T15:27:46.245Z,15.63
2019-01-11T15:30:19.964Z,17.53
2019-01-11T15:32:49.333Z,20.37
2019-01-11T15:35:18.828Z,16.13
2019-01-11T15:37:47.992Z,14.73
2019-01-11T15:40:22.462Z,18.67
2019-01-11T15:42:51.504Z,12.83
2019-01-11T15:45:22.752Z,16.50
2019-01-11T15:47:51.809Z,14.27
2019-01-11T15:50:57.700Z,16.67
2019-01-11T15:53:33.010Z,16.07
2019-01-11T15:56:02.189Z,15.63
2019-01-11T15:58:31.205Z,20.23
2019-01-11T16:01:00.319Z,14.67
2019-01-11T16:03:29.397Z,17.47
2019-01-11T16:06:35.102Z,19.13
2019-01-11T16:09:59.018Z,12.60
2019-01-11T16:12:53.141Z,18.47
2019-01-11T16:15:42.539Z,15.40
2019-01-11T16:18:24.384Z,16.47
2019-01-11T16:20:54.358Z,11.70
2019-01-11T16:23:23.386Z,14.10
2019-01-11T16:25:52.402Z,13.53
2019-01-11T16:28:21.626Z,16.43
2019-01-11T16:30:50.647Z,18.07
2019-01-11T16:33:19.691Z,13.50
2019-01-11T16:35:48.835Z,13.00
2019-01-11T16:38:17.853Z,18.60
2019-01-11T16:40:46.881Z,14.60
2019-01-11T16:43:16.035Z,10.93
2019-01-11T16:45:46.160Z,22.07
2019-01-11T16:48:15.122Z,24.13
2019-01-11T16:50:44.251Z,29.20
2019-01-11T16:53:13.184Z,20.95
2019-01-11T16:55:42.191Z,21.07
2019-01-11T16:58:11.225Z,23.97
2019-01-11T17:00:40.351Z,18.20
2019-01-11T17:03:09.471Z,21.47
2019-01-11T17:05:38.502Z,17.80
2019-01-11T17:08:07.533Z,13.40
2019-01-11T17:10:36.505Z,14.27
2019-01-11T17:13:05.545Z,19.97
2019-01-11T17:15:34.672Z,15.83
2019-01-11T17:18:03.872Z,17.37
2019-01-11T17:20:32.925Z,17.83
2019-01-11T17:23:02.034Z,13.03
2019-01-11T17:25:31.132Z,15.47
2019-01-11T17:28:00.222Z,14.47
2019-01-11T17:30:29.369Z,18.20
2019-01-11T17:32:58.319Z,16.90
2019-01-11T17:35:27.280Z,12.73
2019-01-11T17:37:56.389Z,16.07
2019-01-11T17:40:25.533Z,15.07
2019-01-11T17:42:54.758Z,13.10
2019-01-11T17:45:27.476Z,16.27
2019-01-11T17:47:56.461Z,20.87
2019-01-11T17:50:25.705Z,19.50
2019-01-11T17:52:59.738Z,15.30
2019-01-11T17:55:25.467Z,17.82
2019-01-11T17:57:54.780Z,15.93
2019-01-11T18:00:23.917Z,10.43
2019-01-11T18:02:52.968Z,11.57
2019-01-11T18:05:22.251Z,15.50
2019-01-11T18:07:51.284Z,9.70
2019-01-11T18:10:20.294Z,11.70
2019-01-11T18:12:49.493Z,14.37
2019-01-11T18:15:22.753Z,10.73
2019-01-11T18:17:52.023Z,11.87
2019-01-11T18:20:23.478Z,15.53
2019-01-11T18:22:52.568Z,14.90
2019-01-11T18:25:21.607Z,12.33
2019-01-11T18:27:50.648Z,11.43
2019-01-11T18:30:19.888Z,12.67
2019-01-11T18:32:48.893Z,11.27
2019-01-11T18:35:17.952Z,12.70
2019-01-11T18:37:46.968Z,14.37
2019-01-11T18:40:21.667Z,15.47
2019-01-11T18:42:50.779Z,15.80
2019-01-11T18:45:19.832Z,14.80
2019-01-11T18:47:48.902Z,16.30
2019-01-11T18:50:29.028Z,17.53
2019-01-11T18:52:57.791Z,15.03
2019-01-11T18:55:26.710Z,13.87
2019-01-11T18:57:55.667Z,15.27
2019-01-11T19:00:26.937Z,15.30
2019-01-11T19:02:55.980Z,19.53
2019-01-11T19:05:24.976Z,15.73
2019-01-11T19:07:54.009Z,17.07
2019-01-11T19:10:23.531Z,12.70
2019-01-11T19:12:52.586Z,16.07
2019-01-11T19:15:27.124Z,18.23
2019-01-11T19:17:56.117Z,16.33
2019-01-11T19:20:29.737Z,17.80
2019-01-11T19:22:59.547Z,15.70
2019-01-11T19:25:29.507Z,19.87
2019-01-11T19:27:58.656Z,16.90
2019-01-11T19:30:28.759Z,17.97
2019-01-11T19:32:57.781Z,18.07
2019-01-11T19:35:28.326Z,14.90
2019-01-11T19:37:57.411Z,19.62
2019-01-11T19:40:26.442Z,17.27
2019-01-11T19:42:55.602Z,16.63
2019-01-11T19:45:24.742Z,14.57
2019-01-11T19:47:53.745Z,18.00
2019-01-11T19:50:24.172Z,18.73
2019-01-11T19:52:53.436Z,16.93
2019-01-11T19:55:22.639Z,15.33
2019-01-11T19:57:51.765Z,19.50
2019-01-11T20:00:22.760Z,18.87
2019-01-11T20:02:51.843Z,62.50
2019-01-11T20:05:21.332Z,43.20
2019-01-11T20:07:50.908Z,49.58
2019-01-11T20:10:26.025Z,24.63
2019-01-11T20:12:55.038Z,22.40
2019-01-11T20:15:24.254Z,31.33
2019-01-11T20:17:53.480Z,22.10
2019-01-11T20:20:22.490Z,160.77
2019-01-11T20:22:51.606Z,14.57
2019-01-11T20:25:22.327Z,15.33
2019-01-11T20:27:51.481Z,17.40
2019-01-11T20:30:23.614Z,20.67
2019-01-11T20:32:52.696Z,14.17
2019-01-11T20:35:22.217Z,19.20
2019-01-11T20:37:51.567Z,17.57
2019-01-11T20:40:20.668Z,15.93
2019-01-11T20:42:49.731Z,14.37
2019-01-11T20:45:20.417Z,18.70
2019-01-11T20:47:49.837Z,11.43
2019-01-11T20:50:21.065Z,60.77
2019-01-11T20:52:50.390Z,15.37
2019-01-11T20:55:19.629Z,16.33
2019-01-11T20:57:48.778Z,18.13
2019-01-11T21:00:21.240Z,18.60
2019-01-11T21:02:50.601Z,17.20
2019-01-11T21:05:19.801Z,16.27
2019-01-11T21:07:48.860Z,26.77
2019-01-11T21:10:18.225Z,15.73
2019-01-11T21:12:47.309Z,15.20
2019-01-11T21:15:16.572Z,16.03
2019-01-11T21:17:46.148Z,16.37
2019-01-11T21:20:16.205Z,15.67
2019-01-11T21:22:45.541Z,17.40
2019-01-11T21:25:15.779Z,10.87
2019-01-11T21:27:44.917Z,10.97
2019-01-11T21:30:21.869Z,16.70
2019-01-11T21:32:51.040Z,16.83
2019-01-11T21:35:20.144Z,13.87
2019-01-11T21:37:49.213Z,20.17
2019-01-11T21:40:19.117Z,11.43
2019-01-11T21:42:48.152Z,12.13
2019-01-11T21:45:17.589Z,13.80
2019-01-11T21:47:46.760Z,11.10
2019-01-11T21:50:18.023Z,11.80
2019-01-11T21:52:47.036Z,11.90
2019-01-11T21:55:16.026Z,9.67
2019-01-11T21:57:45.174Z,10.00
2019-01-11T22:00:25.817Z,16.57
2019-01-11T22:02:54.876Z,13.60
2019-01-11T22:05:24.201Z,10.57
2019-01-11T22:07:53.266Z,11.77
2019-01-11T22:10:22.264Z,9.83
2019-01-11T22:12:51.375Z,10.07
2019-01-11T22:15:20.492Z,12.33
2019-01-11T22:17:49.543Z,20.13
2019-01-11T22:20:18.790Z,11.70
2019-01-11T22:22:47.908Z,12.80
2019-01-11T22:25:16.965Z,12.57
2019-01-11T22:27:46.005Z,13.47
2019-01-11T22:30:17.255Z,19.37
2019-01-11T22:32:46.263Z,17.27
2019-01-11T22:35:16.015Z,15.07
2019-01-11T22:37:45.157Z,12.53
2019-01-11T22:40:18.905Z,9.93
2019-01-11T22:42:49.580Z,8.97
2019-01-11T22:45:18.623Z,13.90
2019-01-11T22:47:47.678Z,24.10
2019-01-11T22:50:16.941Z,26.97
2019-01-11T22:52:46.003Z,85.73
2019-01-11T22:55:15.456Z,16.03
2019-01-11T22:57:44.636Z,17.50
2019-01-11T23:00:48.700Z,38.93
2019-01-11T23:03:21.856Z,18.63
2019-01-11T23:05:52.526Z,14.10
2019-01-11T23:08:22.149Z,25.50
2019-01-11T23:11:28.720Z,14.97
2019-01-11T23:13:57.667Z,17.30
2019-01-11T23:16:31.662Z,13.90
2019-01-11T23:19:00.782Z,17.13
2019-01-11T23:21:29.765Z,16.10
2019-01-11T23:23:58.801Z,13.70
2019-01-11T23:26:27.858Z,14.80
2019-01-11T23:28:56.895Z,14.70
2019-01-11T23:31:26.012Z,24.53
2019-01-11T23:33:55.056Z,19.30
2019-01-11T23:36:24.146Z,13.93
2019-01-11T23:38:54.311Z,16.47
2019-01-11T23:41:23.306Z,13.60
2019-01-11T23:43:52.363Z,19.87
2019-01-11T23:46:21.498Z,14.30
2019-01-11T23:48:50.569Z,17.63
2019-01-11T23:51:19.620Z,18.17
2019-01-11T23:53:48.501Z,13.43
2019-01-11T23:56:17.655Z,12.20
2019-01-11T23:58:46.649Z,18.80
